Time;durP1;ratioP1;P1;durP2;ratioP2;P2;SDS_P1;SDS_P2;PMS_P1;PMS_P2;Temp;Humidity;BMP_temperature;BMP_pressure;BME280_temperature;BME280_humidity;BME280_pressure;Samples;Min_cycle;Max_cycle;Signal;HPM_P1;HPM_P2
2022/10/10 00:00:45;;;;;;;5.27;1.30;;;6.10;99.90;;;;;;5095712;28;20636;-78
2022/10/10 00:03:10;;;;;;;3.03;2.00;;;6.10;99.90;;;;;;5095750;28;20212;-78
2022/10/10 00:05:37;;;;;;;5.03;1.73;;;6.10;99.90;;;;;;5096215;28;20174;-78
2022/10/10 00:08:04;;;;;;;2.50;1.67;;;6.00;99.90;;;;;;5094203;28;20170;-78
2022/10/10 00:10:31;;;;;;;5.00;1.90;;;6.00;99.90;;;;;;5075428;28;20257;-78
2022/10/10 00:12:56;;;;;;;4.53;1.50;;;6.00;99.90;;;;;;5093695;28;20273;-78
2022/10/10 00:15:22;;;;;;;5.33;1.60;;;6.00;99.90;;;;;;5093483;28;20271;-78
2022/10/10 00:17:47;;;;;;;2.37;1.47;;;5.90;99.90;;;;;;5093547;28;20200;-77
2022/10/10 00:20:16;;;;;;;5.00;1.80;;;6.00;99.90;;;;;;5093269;28;20177;-78
2022/10/10 00:22:42;;;;;;;3.07;1.70;;;6.00;99.90;;;;;;5093251;28;20608;-78
2022/10/10 00:25:08;;;;;;;6.47;1.47;;;5.90;99.90;;;;;;5093616;28;20198;-78
2022/10/10 00:27:34;;;;;;;5.27;1.63;;;6.00;99.90;;;;;;5095858;28;20659;-77
2022/10/10 00:30:00;;;;;;;6.90;1.77;;;6.00;99.90;;;;;;5097301;28;20202;-78
2022/10/10 00:32:26;;;;;;;1.90;1.70;;;6.00;99.90;;;;;;5097484;28;20189;-78
2022/10/10 00:34:52;;;;;;;2.17;1.80;;;5.90;99.90;;;;;;5097295;28;20597;-78
2022/10/10 00:37:18;;;;;;;2.23;1.67;;;6.00;99.90;;;;;;5097675;28;20194;-78
2022/10/10 00:39:43;;;;;;;3.60;1.43;;;6.00;99.90;;;;;;5097238;28;20209;-80
2022/10/10 00:42:14;;;;;;;2.93;1.50;;;6.00;99.90;;;;;;5097857;28;20227;-78
2022/10/10 00:44:41;;;;;;;3.57;1.80;;;6.00;99.90;;;;;;5081454;28;20198;-77
2022/10/10 00:47:07;;;;;;;2.87;1.90;;;6.10;99.90;;;;;;5100248;28;20277;-79
2022/10/10 00:49:37;;;;;;;3.63;1.83;;;6.10;99.90;;;;;;5082428;28;20237;-79
2022/10/10 00:52:03;;;;;;;3.07;1.83;;;6.20;99.90;;;;;;5100909;28;20198;-79
2022/10/10 00:54:31;;;;;;;3.10;1.93;;;6.20;99.90;;;;;;5100094;28;20216;-79
2022/10/10 00:57:03;;;;;;;3.67;1.50;;;6.20;99.90;;;;;;5100780;28;20219;-79
2022/10/10 00:59:32;;;;;;;3.10;2.33;;;6.30;99.90;;;;;;5082295;28;20205;-79
2022/10/10 01:01:58;;;;;;;2.20;1.57;;;6.40;99.90;;;;;;5099972;28;20632;-79
2022/10/10 01:04:28;;;;;;;2.67;1.60;;;6.40;99.90;;;;;;5098993;28;20218;-77
2022/10/10 01:06:54;;;;;;;2.67;1.90;;;6.40;99.90;;;;;;5097592;28;20197;-77
2022/10/10 01:09:20;;;;;;;3.37;1.83;;;6.50;99.90;;;;;;5096830;28;20663;-77
2022/10/10 01:11:59;;;;;;;2.57;1.80;;;6.50;99.90;;;;;;5097043;28;20166;-77
2022/10/10 01:14:39;;;;;;;3.17;2.10;;;6.60;99.90;;;;;;5078850;28;20166;-77
2022/10/10 01:17:19;;;;;;;2.70;1.67;;;6.60;99.90;;;;;;5078343;28;20671;-77
2022/10/10 01:20:06;;;;;;;4.47;1.93;;;6.60;99.90;;;;;;5078418;28;20190;-77
2022/10/10 01:23:05;;;;;;;2.17;1.70;;;6.70;99.90;;;;;;5078262;28;20251;-77
2022/10/10 01:25:59;;;;;;;2.93;1.90;;;6.80;99.90;;;;;;5096661;28;20194;-77
2022/10/10 01:28:42;;;;;;;5.50;1.93;;;6.80;99.90;;;;;;5037978;28;20210;-77
2022/10/10 01:31:11;;;;;;;4.30;1.70;;;6.90;99.90;;;;;;5096566;28;20216;-77
2022/10/10 01:37:18;;;;;;;2.00;1.67;;;7.00;99.90;;;;;;5096034;28;20251;-77
2022/10/10 01:40:03;;;;;;;3.30;1.80;;;7.00;99.90;;;;;;5077329;28;20566;-77
2022/10/10 01:42:37;;;;;;;3.53;1.53;;;7.00;99.90;;;;;;5095893;28;20167;-77
2022/10/10 01:45:04;;;;;;;3.20;1.40;;;7.10;99.90;;;;;;5077710;28;20177;-77
2022/10/10 01:47:29;;;;;;;2.57;1.80;;;7.10;99.90;;;;;;5095917;28;20228;-76
2022/10/10 01:50:00;;;;;;;4.80;1.43;;;7.20;99.90;;;;;;5078140;28;20190;-77
2022/10/10 01:52:59;;;;;;;6.80;1.93;;;7.20;99.90;;;;;;5077959;28;20621;-77
2022/10/10 01:55:46;;;;;;;3.07;2.10;;;7.20;99.90;;;;;;5096055;28;20177;-77
2022/10/10 01:58:24;;;;;;;3.00;1.70;;;7.30;99.90;;;;;;5095364;28;20182;-77
2022/10/10 02:01:16;;;;;;;7.67;1.87;;;7.30;99.90;;;;;;5077420;28;20212;-77
2022/10/10 02:03:48;;;;;;;1.83;1.37;;;7.30;99.90;;;;;;5074188;28;20260;-77
2022/10/10 02:06:29;;;;;;;2.97;1.60;;;7.40;99.90;;;;;;5077363;28;20644;-77
2022/10/10 02:09:06;;;;;;;2.50;1.60;;;7.30;99.90;;;;;;5076998;28;20297;-77
2022/10/10 02:11:35;;;;;;;3.60;1.80;;;7.40;99.90;;;;;;5095764;28;20174;-77
2022/10/10 02:14:22;;;;;;;2.07;1.60;;;7.40;99.90;;;;;;5095269;28;20229;-77
2022/10/10 02:16:51;;;;;;;7.23;2.20;;;7.40;99.90;;;;;;5095412;28;20198;-77
2022/10/10 02:19:19;;;;;;;4.33;1.70;;;7.50;99.90;;;;;;5094850;28;20273;-77
2022/10/10 02:21:47;;;;;;;3.23;1.50;;;7.50;99.90;;;;;;5077048;28;20170;-77
2022/10/10 02:24:14;;;;;;;4.73;1.60;;;7.60;99.90;;;;;;5094973;28;20178;-77
2022/10/10 02:26:44;;;;;;;2.77;1.90;;;7.60;99.90;;;;;;5094938;28;20173;-77
2022/10/10 02:29:15;;;;;;;4.77;1.73;;;7.60;99.90;;;;;;5077145;28;20285;-77
2022/10/10 02:31:52;;;;;;;3.20;1.87;;;7.70;99.90;;;;;;5075900;28;20601;-77
2022/10/10 02:34:23;;;;;;;2.60;1.83;;;7.70;99.90;;;;;;5077197;28;20166;-77
2022/10/10 02:36:53;;;;;;;4.53;1.60;;;7.70;99.90;;;;;;5101985;28;20190;-77
2022/10/10 02:39:23;;;;;;;4.47;1.70;;;7.80;99.90;;;;;;5099879;28;20293;-77
2022/10/10 02:41:51;;;;;;;2.47;1.97;;;7.80;99.90;;;;;;5095382;28;20175;-77
2022/10/10 02:44:18;;;;;;;2.70;1.47;;;7.90;99.90;;;;;;5095153;28;20640;-76
2022/10/10 02:46:43;;;;;;;2.33;1.90;;;8.00;99.90;;;;;;5095262;28;20198;-77
2022/10/10 02:49:10;;;;;;;2.50;1.50;;;8.00;99.90;;;;;;5094998;28;20690;-77
2022/10/10 02:51:37;;;;;;;4.77;1.60;;;8.00;99.90;;;;;;5076492;28;20231;-79
2022/10/10 02:54:02;;;;;;;9.53;1.80;;;8.00;99.90;;;;;;5078868;28;20167;-77
2022/10/10 02:56:28;;;;;;;1.87;1.57;;;8.00;99.90;;;;;;5096047;28;20640;-77
2022/10/10 02:58:53;;;;;;;2.27;1.60;;;8.10;99.90;;;;;;5083308;28;20201;-77
2022/10/10 03:01:19;;;;;;;3.40;2.00;;;8.10;99.90;;;;;;5102454;28;20181;-77
2022/10/10 03:03:44;;;;;;;3.27;1.93;;;8.10;99.90;;;;;;5083899;28;20247;-77
2022/10/10 03:06:10;;;;;;;8.60;1.90;;;8.20;99.90;;;;;;5101590;28;20178;-77
2022/10/10 03:08:38;;;;;;;2.93;1.77;;;8.20;99.90;;;;;;5101333;28;20220;-77
2022/10/10 03:11:04;;;;;;;2.13;1.70;;;8.20;99.90;;;;;;5096926;28;20174;-77
2022/10/10 03:13:30;;;;;;;2.73;1.77;;;8.20;99.90;;;;;;5076204;28;20189;-78
2022/10/10 03:15:56;;;;;;;6.47;1.83;;;8.30;99.90;;;;;;5094755;28;20182;-77
2022/10/10 03:18:22;;;;;;;2.43;1.60;;;8.30;99.90;;;;;;5094664;28;20251;-77
2022/10/10 03:20:53;;;;;;;1.83;1.50;;;8.30;99.90;;;;;;5094507;28;20170;-77
2022/10/10 03:23:19;;;;;;;3.00;1.63;;;8.30;99.90;;;;;;5076288;28;20185;-77
2022/10/10 03:25:45;;;;;;;2.97;1.83;;;8.30;99.90;;;;;;5094721;28;20294;-77
2022/10/10 03:28:11;;;;;;;2.13;1.87;;;8.30;99.90;;;;;;5094883;28;20501;-77
2022/10/10 03:30:38;;;;;;;4.67;1.53;;;8.30;99.90;;;;;;5076390;28;20182;-77
2022/10/10 03:33:04;;;;;;;1.97;1.60;;;8.30;99.90;;;;;;5094450;28;20166;-78
2022/10/10 03:35:29;;;;;;;2.07;1.53;;;8.30;99.90;;;;;;5094936;28;20223;-77
2022/10/10 03:37:56;;;;;;;4.20;2.10;;;8.30;99.90;;;;;;5094122;28;20565;-77
2022/10/10 03:40:22;;;;;;;4.13;1.73;;;8.40;99.90;;;;;;5075925;28;20271;-77
2022/10/10 03:42:47;;;;;;;3.30;1.47;;;8.30;99.90;;;;;;5094059;28;20170;-77
2022/10/10 03:45:13;;;;;;;4.17;2.13;;;8.40;99.90;;;;;;5076113;28;20268;-77
2022/10/10 03:47:38;;;;;;;3.10;1.50;;;8.40;99.90;;;;;;5075770;28;20207;-77
2022/10/10 03:50:04;;;;;;;2.93;2.03;;;8.40;99.90;;;;;;5093899;28;20190;-77
2022/10/10 03:52:30;;;;;;;2.67;1.53;;;8.40;99.90;;;;;;5093741;28;20617;-77
2022/10/10 03:54:56;;;;;;;1.70;1.53;;;8.40;99.90;;;;;;5094387;28;20169;-77
2022/10/10 03:57:21;;;;;;;4.27;2.00;;;8.40;99.90;;;;;;5094081;28;20698;-77
2022/10/10 03:59:47;;;;;;;3.27;1.80;;;8.40;99.90;;;;;;5094374;28;20209;-79
2022/10/10 04:02:12;;;;;;;2.57;2.00;;;8.50;99.90;;;;;;5097573;28;20544;-78
2022/10/10 04:04:38;;;;;;;5.90;1.97;;;8.50;99.90;;;;;;5082387;28;20178;-77
2022/10/10 04:07:03;;;;;;;3.40;1.87;;;8.50;99.90;;;;;;5100847;28;20201;-77
2022/10/10 04:09:29;;;;;;;4.93;1.70;;;8.60;99.90;;;;;;5082760;28;20266;-77
2022/10/10 04:11:54;;;;;;;6.73;1.93;;;8.60;99.90;;;;;;5100786;28;20651;-77
2022/10/10 04:14:20;;;;;;;2.17;1.50;;;8.60;99.90;;;;;;5101221;28;20531;-77
2022/10/10 04:16:45;;;;;;;3.33;1.90;;;8.60;99.90;;;;;;5100678;28;20655;-77
2022/10/10 04:19:11;;;;;;;4.27;1.93;;;8.60;99.90;;;;;;5100649;28;20190;-77
2022/10/10 04:21:36;;;;;;;2.10;1.83;;;8.60;99.90;;;;;;5100396;28;20257;-77
2022/10/10 04:24:02;;;;;;;3.90;1.93;;;8.60;99.90;;;;;;5082304;28;20215;-77
2022/10/10 04:26:29;;;;;;;3.77;2.00;;;8.60;99.90;;;;;;5082446;28;20201;-77
2022/10/10 04:28:54;;;;;;;3.27;1.80;;;8.60;99.90;;;;;;5082191;28;20286;-77
2022/10/10 04:31:20;;;;;;;3.97;1.80;;;8.60;99.90;;;;;;5100160;28;20208;-77
2022/10/10 04:33:45;;;;;;;3.43;2.13;;;8.60;99.90;;;;;;5081778;28;20174;-77
2022/10/10 04:36:11;;;;;;;4.57;2.10;;;8.60;99.90;;;;;;5101901;28;20174;-77
2022/10/10 04:38:37;;;;;;;2.30;1.83;;;8.60;99.90;;;;;;5081458;28;20217;-77
2022/10/10 04:41:02;;;;;;;3.83;2.00;;;8.60;99.90;;;;;;5082181;28;20220;-78
2022/10/10 04:43:28;;;;;;;2.90;1.90;;;8.60;99.90;;;;;;5083228;28;20238;-78
2022/10/10 04:45:56;;;;;;;3.43;1.90;;;8.60;99.90;;;;;;5101382;28;20663;-78
2022/10/10 04:48:21;;;;;;;2.77;2.10;;;8.60;99.90;;;;;;5101533;28;20202;-78
2022/10/10 04:50:55;;;;;;;2.77;1.80;;;8.60;99.90;;;;;;5101495;28;20180;-78
2022/10/10 04:53:21;;;;;;;3.97;2.67;;;8.60;99.90;;;;;;5101300;28;20296;-78
2022/10/10 04:55:47;;;;;;;2.53;1.80;;;8.60;99.90;;;;;;5101192;28;20201;-78
2022/10/10 04:58:12;;;;;;;4.23;2.10;;;8.60;99.90;;;;;;5101444;28;20648;-78
2022/10/10 05:00:38;;;;;;;2.67;2.00;;;8.60;99.90;;;;;;5085682;28;20182;-78
2022/10/10 05:03:04;;;;;;;6.37;2.40;;;8.60;99.90;;;;;;5101842;28;20173;-78
2022/10/10 05:05:30;;;;;;;3.73;2.10;;;8.60;99.90;;;;;;5100665;28;20631;-78
2022/10/10 05:07:56;;;;;;;2.93;2.13;;;8.50;99.90;;;;;;5101414;28;20182;-78
2022/10/10 05:10:23;;;;;;;5.57;2.20;;;8.60;99.90;;;;;;5083728;28;20194;-79
2022/10/10 05:12:48;;;;;;;3.23;2.30;;;8.60;99.90;;;;;;5100471;28;20543;-78
2022/10/10 05:15:14;;;;;;;4.93;2.47;;;8.50;99.90;;;;;;5079285;28;20182;-79
2022/10/10 05:17:39;;;;;;;2.93;2.30;;;8.60;99.90;;;;;;5078965;28;20622;-78
2022/10/10 05:20:05;;;;;;;4.07;2.30;;;8.60;99.90;;;;;;5096998;28;20789;-78
2022/10/10 05:22:31;;;;;;;3.07;2.30;;;8.50;99.90;;;;;;5096866;28;20655;-78
2022/10/10 05:24:58;;;;;;;5.93;2.30;;;8.50;99.90;;;;;;5096530;28;20232;-78
2022/10/10 05:27:25;;;;;;;2.90;2.33;;;8.50;99.90;;;;;;5096644;28;20631;-78
2022/10/10 05:29:50;;;;;;;4.33;2.50;;;8.60;99.90;;;;;;5096613;28;20217;-78
2022/10/10 05:32:16;;;;;;;4.10;2.57;;;8.60;99.90;;;;;;5096426;28;20217;-78
2022/10/10 05:34:41;;;;;;;3.57;2.20;;;8.50;99.90;;;;;;5096382;28;20545;-77
2022/10/10 05:37:07;;;;;;;3.67;2.50;;;8.60;99.90;;;;;;5097736;28;20206;-79
2022/10/10 05:39:32;;;;;;;4.27;2.43;;;8.60;99.90;;;;;;5111392;22;20230;-82
2022/10/10 05:41:58;;;;;;;3.60;2.37;;;8.60;99.90;;;;;;5079401;28;20174;-82
2022/10/10 05:44:24;;;;;;;3.67;2.30;;;8.60;99.90;;;;;;5097724;28;20174;-82
2022/10/10 05:46:49;;;;;;;3.87;2.50;;;8.60;99.90;;;;;;5097673;28;20181;-82
2022/10/10 05:49:15;;;;;;;6.47;2.77;;;8.60;99.90;;;;;;5081069;28;20220;-82
2022/10/10 05:51:40;;;;;;;5.27;2.50;;;8.60;99.90;;;;;;5097484;28;20174;-81
2022/10/10 05:54:06;;;;;;;5.73;2.63;;;8.60;99.90;;;;;;5090433;28;20927;-81
2022/10/10 05:56:31;;;;;;;3.00;2.70;;;8.60;99.90;;;;;;5082388;28;20185;-81
2022/10/10 05:58:57;;;;;;;5.13;3.07;;;8.70;99.90;;;;;;5084762;28;20562;-81
2022/10/10 06:01:22;;;;;;;2.50;2.20;;;8.60;99.90;;;;;;5092645;28;20170;-81
2022/10/10 06:03:51;;;;;;;4.57;2.70;;;8.70;99.90;;;;;;5090780;28;20171;-81
2022/10/10 06:06:18;;;;;;;3.83;2.80;;;8.70;99.90;;;;;;5093015;28;20197;-81
2022/10/10 06:08:44;;;;;;;2.90;2.60;;;8.70;99.90;;;;;;5095899;28;20213;-81
2022/10/10 06:11:13;;;;;;;4.43;2.43;;;8.70;99.90;;;;;;5095419;28;20167;-81
2022/10/10 06:13:39;;;;;;;2.30;2.03;;;8.70;99.90;;;;;;5095685;28;20659;-81
2022/10/10 06:16:05;;;;;;;3.47;2.60;;;8.70;99.90;;;;;;5096090;28;20242;-81
2022/10/10 06:18:30;;;;;;;6.80;2.80;;;8.70;99.90;;;;;;5097326;28;20558;-81
2022/10/10 06:21:04;;;;;;;2.77;2.43;;;8.70;99.90;;;;;;5096924;28;20541;-81
2022/10/10 06:23:29;;;;;;;3.63;2.80;;;8.70;99.90;;;;;;5095693;28;20174;-81
2022/10/10 06:25:55;;;;;;;5.00;2.70;;;8.80;99.90;;;;;;5096976;28;20701;-81
2022/10/10 06:28:21;;;;;;;5.23;2.40;;;8.80;99.90;;;;;;5096831;28;20231;-81
2022/10/10 06:30:49;;;;;;;2.70;2.50;;;8.80;99.90;;;;;;5097406;28;20582;-81
2022/10/10 06:33:17;;;;;;;3.60;2.23;;;8.90;99.90;;;;;;5095977;28;20182;-81
2022/10/10 06:35:44;;;;;;;4.20;2.90;;;8.90;99.90;;;;;;5094505;28;20231;-81
2022/10/10 06:38:11;;;;;;;3.43;3.10;;;8.90;99.90;;;;;;5090065;28;20564;-81
2022/10/10 06:40:38;;;;;;;3.50;2.60;;;8.90;99.90;;;;;;5094465;28;20241;-81
2022/10/10 06:43:07;;;;;;;3.27;2.63;;;8.90;99.90;;;;;;5095901;28;20178;-80
2022/10/10 06:45:35;;;;;;;9.47;2.93;;;9.00;99.90;;;;;;5096840;28;20189;-81
2022/10/10 06:48:00;;;;;;;2.93;2.40;;;9.00;99.90;;;;;;5095288;28;20184;-81
2022/10/10 06:50:26;;;;;;;4.50;3.10;;;9.10;99.90;;;;;;5096748;28;20265;-81
2022/10/10 06:52:51;;;;;;;6.60;2.90;;;9.10;99.90;;;;;;5095014;28;20200;-80
2022/10/10 06:55:17;;;;;;;3.83;2.50;;;9.20;99.90;;;;;;5095717;28;20174;-79
2022/10/10 06:57:43;;;;;;;4.97;2.93;;;9.20;99.90;;;;;;5096698;28;20678;-79
2022/10/10 07:00:09;;;;;;;6.80;3.20;;;9.20;99.90;;;;;;5095048;28;20197;-80
2022/10/10 07:02:39;;;;;;;4.90;3.00;;;9.30;99.90;;;;;;5096707;28;20250;-80
2022/10/10 07:05:10;;;;;;;8.80;3.10;;;9.40;99.90;;;;;;5097285;28;20170;-80
2022/10/10 07:07:37;;;;;;;6.33;2.83;;;9.40;99.90;;;;;;5095880;28;20167;-80
2022/10/10 07:10:03;;;;;;;6.07;2.83;;;9.50;99.90;;;;;;5095238;28;20220;-79
2022/10/10 07:12:28;;;;;;;4.17;2.70;;;9.60;99.90;;;;;;5096789;28;20220;-80
2022/10/10 07:14:54;;;;;;;4.73;2.97;;;9.60;99.90;;;;;;5096702;28;20656;-79
2022/10/10 07:17:19;;;;;;;4.70;2.80;;;9.70;99.90;;;;;;5096978;28;20194;-80
2022/10/10 07:19:45;;;;;;;5.33;2.33;;;9.80;99.90;;;;;;5100179;28;20215;-80
2022/10/10 07:22:10;;;;;;;4.83;2.33;;;9.90;99.90;;;;;;5110994;28;20244;-80
2022/10/10 07:24:36;;;;;;;5.00;3.03;;;9.90;99.90;;;;;;5109908;28;20178;-80
2022/10/10 07:27:02;;;;;;;6.53;3.90;;;10.00;99.90;;;;;;5108898;28;20178;-80
2022/10/10 07:29:29;;;;;;;7.17;2.87;;;10.10;99.90;;;;;;5110611;28;20249;-80
2022/10/10 07:31:55;;;;;;;9.03;3.10;;;10.10;99.90;;;;;;5103047;28;20185;-79
2022/10/10 07:34:20;;;;;;;6.23;2.87;;;10.20;99.90;;;;;;5106191;28;20174;-79
2022/10/10 07:36:49;;;;;;;7.30;2.97;;;10.20;99.90;;;;;;5109003;28;20181;-80
2022/10/10 07:39:18;;;;;;;3.63;2.33;;;10.30;99.90;;;;;;5099179;28;20205;-80
2022/10/10 07:41:44;;;;;;;6.40;2.67;;;10.30;99.90;;;;;;5098024;28;20564;-80
2022/10/10 07:44:09;;;;;;;7.73;2.87;;;10.40;99.90;;;;;;5099040;28;20167;-80
2022/10/10 07:46:35;;;;;;;4.17;2.70;;;10.40;99.90;;;;;;5098983;28;20170;-79
2022/10/10 07:49:00;;;;;;;4.70;2.73;;;10.50;99.90;;;;;;5097286;28;20303;-80
2022/10/10 07:51:26;;;;;;;6.07;3.07;;;10.50;99.90;;;;;;5100644;28;20189;-79
2022/10/10 07:53:52;;;;;;;5.67;2.67;;;10.50;99.90;;;;;;5098598;28;20249;-80
2022/10/10 07:56:17;;;;;;;4.47;2.63;;;10.60;99.90;;;;;;5099457;28;20182;-80
2022/10/10 07:58:43;;;;;;;3.43;2.70;;;10.60;99.90;;;;;;5097144;28;20197;-80
2022/10/10 08:01:10;;;;;;;5.47;2.90;;;10.60;99.90;;;;;;5099065;28;20636;-79
2022/10/10 08:03:36;;;;;;;4.60;2.60;;;10.60;99.90;;;;;;5096526;28;20175;-80
2022/10/10 08:06:04;;;;;;;8.30;2.97;;;10.70;99.90;;;;;;5096840;28;20664;-79
2022/10/10 08:08:31;;;;;;;7.13;2.77;;;10.70;99.90;;;;;;5098322;28;20194;-80
2022/10/10 08:10:57;;;;;;;3.77;2.63;;;10.70;99.90;;;;;;5098356;28;20225;-80
2022/10/10 08:13:23;;;;;;;7.30;3.30;;;10.80;99.90;;;;;;5097119;28;20197;-81
2022/10/10 08:15:52;;;;;;;5.80;3.00;;;10.80;99.90;;;;;;5098245;28;20166;-80
2022/10/10 08:18:18;;;;;;;4.20;2.50;;;10.80;99.90;;;;;;5097524;28;20203;-80
2022/10/10 08:20:44;;;;;;;4.63;2.67;;;10.90;99.90;;;;;;5096149;28;20186;-80
2022/10/10 08:23:10;;;;;;;5.47;2.63;;;10.90;99.90;;;;;;5095825;28;20655;-81
2022/10/10 08:25:36;;;;;;;7.30;2.90;;;11.00;99.90;;;;;;5097216;28;20167;-81
2022/10/10 08:28:01;;;;;;;6.80;2.67;;;11.00;99.90;;;;;;5096635;28;20198;-81
2022/10/10 08:30:27;;;;;;;7.77;3.20;;;11.10;99.90;;;;;;5097258;28;20193;-80
2022/10/10 08:32:52;;;;;;;3.40;2.63;;;11.20;99.90;;;;;;5087963;28;20241;-81
2022/10/10 08:35:18;;;;;;;5.33;3.30;;;11.30;99.90;;;;;;5077994;28;20170;-79
2022/10/10 08:37:44;;;;;;;7.57;3.47;;;11.30;99.90;;;;;;5078462;28;20190;-80
2022/10/10 08:40:14;;;;;;;8.83;2.83;;;11.40;99.90;;;;;;5080561;28;20220;-81
2022/10/10 08:42:47;;;;;;;5.73;2.63;;;11.50;99.90;;;;;;5098066;28;20177;-81
2022/10/10 08:45:19;;;;;;;7.03;3.63;;;11.60;99.90;;;;;;5096335;28;20175;-81
2022/10/10 08:47:54;;;;;;;6.83;3.10;;;11.70;99.90;;;;;;5094631;28;20242;-80
2022/10/10 08:50:28;;;;;;;6.30;3.00;;;11.70;99.90;;;;;;5100483;28;20193;-80
2022/10/10 08:52:53;;;;;;;10.67;3.17;;;11.80;99.90;;;;;;5101440;28;20174;-80
2022/10/10 08:55:36;;;;;;;6.37;3.80;;;11.90;99.90;;;;;;5100975;28;20245;-80
2022/10/10 08:58:10;;;;;;;7.80;3.33;;;12.00;99.90;;;;;;5098617;28;20663;-81
2022/10/10 09:00:42;;;;;;;8.03;3.30;;;12.10;99.90;;;;;;5102111;28;20556;-81
2022/10/10 09:03:20;;;;;;;5.73;2.90;;;12.20;99.90;;;;;;5101029;28;20166;-81
2022/10/10 09:06:12;;;;;;;5.93;3.03;;;12.20;78.40;;;;;;5099766;28;20390;-81
2022/10/10 09:08:53;;;;;;;6.90;3.23;;;12.40;24.40;;;;;;5101345;28;20182;-81
2022/10/10 09:11:18;;;;;;;5.67;3.20;;;12.50;1.00;;;;;;5100609;28;20158;-81
2022/10/10 09:14:06;;;;;;;8.13;2.90;;;12.60;1.00;;;;;;5099579;28;20178;-80
2022/10/10 09:16:41;;;;;;;9.30;3.27;;;12.70;1.00;;;;;;5099789;28;20632;-81
2022/10/10 09:19:27;;;;;;;4.53;3.50;;;12.80;1.00;;;;;;5100887;28;20209;-81
2022/10/10 09:21:59;;;;;;;6.87;3.17;;;12.90;1.00;;;;;;5100233;28;20169;-81
2022/10/10 09:24:41;;;;;;;8.90;3.30;;;13.00;1.00;;;;;;5100830;28;20159;-81
2022/10/10 09:27:13;;;;;;;8.30;3.60;;;13.10;1.00;;;;;;5100508;28;20242;-81
2022/10/10 09:29:50;;;;;;;6.40;3.00;;;13.20;1.00;;;;;;5101137;28;20258;-81
2022/10/10 09:32:26;;;;;;;4.70;2.63;;;13.30;1.00;;;;;;5100406;28;20158;-81
2022/10/10 09:35:17;;;;;;;5.77;3.33;;;13.40;99.90;;;;;;5098632;28;20177;-81
2022/10/10 09:37:44;;;;;;;10.00;3.20;;;13.60;99.90;;;;;;5098610;28;20232;-81
2022/10/10 09:40:17;;;;;;;8.37;3.00;;;13.70;99.90;;;;;;5098947;28;20205;-81
2022/10/10 09:42:44;;;;;;;5.83;2.97;;;13.70;99.90;;;;;;5100899;28;20231;-81
2022/10/10 09:45:19;;;;;;;6.93;3.17;;;13.80;71.00;;;;;;5099359;28;20193;-81
2022/10/10 09:47:50;;;;;;;6.63;3.00;;;13.80;1.00;;;;;;5099930;28;20176;-81
2022/10/10 09:50:15;;;;;;;5.97;2.30;;;13.90;99.90;;;;;;5100613;28;20675;-82
2022/10/10 09:52:42;;;;;;;7.70;2.80;;;13.90;99.90;;;;;;5100928;28;20224;-81
2022/10/10 09:55:27;;;;;;;5.00;2.83;;;13.90;99.90;;;;;;5100581;28;20181;-81
2022/10/10 09:57:56;;;;;;;7.37;3.23;;;14.00;99.90;;;;;;5098475;28;20587;-81
2022/10/10 10:00:34;;;;;;;9.50;2.87;;;14.10;9.20;;;;;;5098218;28;20186;-81
2022/10/10 10:03:04;;;;;;;4.87;2.90;;;14.10;1.00;;;;;;5100472;28;20154;-81
2022/10/10 10:05:29;;;;;;;5.93;2.63;;;14.10;1.00;;;;;;5099930;28;20700;-81
2022/10/10 10:07:55;;;;;;;6.80;2.60;;;14.20;1.00;;;;;;5100038;28;20166;-81
2022/10/10 10:10:23;;;;;;;10.07;3.47;;;14.20;99.90;;;;;;5101149;28;20194;-82
2022/10/10 10:12:49;;;;;;;10.73;2.73;;;14.30;99.90;;;;;;5100189;28;20173;-81
2022/10/10 10:15:27;;;;;;;5.40;2.77;;;14.30;99.90;;;;;;5099224;28;20174;-81
2022/10/10 10:18:24;;;;;;;5.10;2.90;;;14.40;99.90;;;;;;5100029;28;20183;-81
2022/10/10 10:21:10;;;;;;;5.07;2.80;;;14.50;99.90;;;;;;5100484;28;20731;-81
2022/10/10 10:23:50;;;;;;;7.07;2.70;;;14.50;99.90;;;;;;5099983;28;20177;-80
2022/10/10 10:26:19;;;;;;;7.13;3.50;;;14.60;84.60;;;;;;5098757;28;20174;-81
2022/10/10 10:28:47;;;;;;;6.43;3.00;;;14.80;1.00;;;;;;5099798;28;20174;-82
2022/10/10 10:31:25;;;;;;;8.30;2.60;;;14.90;1.00;;;;;;5100028;28;20257;-82
2022/10/10 10:34:09;;;;;;;8.20;2.33;;;15.10;99.90;;;;;;5100427;28;20241;-82
2022/10/10 10:36:53;;;;;;;9.80;2.90;;;15.30;1.00;;;;;;5098629;28;20647;-80
2022/10/10 10:39:45;;;;;;;7.90;3.17;;;15.30;1.00;;;;;;5100046;28;20221;-81
2022/10/10 10:42:24;;;;;;;5.77;2.77;;;15.40;1.00;;;;;;5099277;28;20165;-81
2022/10/10 10:45:21;;;;;;;5.00;2.40;;;15.40;1.00;;;;;;5099962;28;20237;-81
2022/10/10 10:48:14;;;;;;;4.70;2.43;;;15.40;1.00;;;;;;5098291;28;20216;-81
2022/10/10 10:50:57;;;;;;;3.90;2.37;;;15.60;99.90;;;;;;5099571;28;20271;-81
2022/10/10 10:53:45;;;;;;;10.00;2.67;;;15.80;99.90;;;;;;5099341;28;20602;-82
2022/10/10 10:56:22;;;;;;;4.70;2.30;;;16.00;99.90;;;;;;5099887;28;20555;-81
2022/10/10 10:59:10;;;;;;;4.67;2.30;;;16.00;1.00;;;;;;5098980;28;20186;-81
2022/10/10 11:02:09;;;;;;;5.77;2.30;;;16.10;1.00;;;;;;5099046;28;20158;-81
2022/10/10 11:05:00;;;;;;;8.53;2.87;;;16.10;1.00;;;;;;5073282;28;20179;-81
2022/10/10 11:07:33;;;;;;;5.50;2.73;;;16.30;99.90;;;;;;5098377;28;20162;-81
2022/10/10 11:10:36;;;;;;;5.30;2.27;;;16.30;99.90;;;;;;5097007;28;20194;-80
2022/10/10 11:13:14;;;;;;;3.37;2.07;;;16.40;24.10;;;;;;5097553;28;20656;-81
2022/10/10 11:15:51;;;;;;;7.87;2.43;;;16.50;37.30;;;;;;5098985;28;20237;-80
2022/10/10 11:18:20;;;;;;;5.53;2.50;;;16.60;56.80;;;;;;5098261;28;20276;-81
2022/10/10 11:20:53;;;;;;;9.70;2.70;;;16.70;42.40;;;;;;5098961;28;20243;-81
2022/10/10 11:23:24;;;;;;;5.77;2.57;;;16.70;1.00;;;;;;5097666;28;20176;-82
2022/10/10 11:25:55;;;;;;;7.90;2.60;;;16.80;1.00;;;;;;5098123;28;20165;-81
2022/10/10 11:28:25;;;;;;;5.00;2.07;;;16.80;99.90;;;;;;5098870;28;20158;-81
2022/10/10 11:30:56;;;;;;;6.53;2.80;;;16.80;1.00;;;;;;5096826;28;20207;-81
2022/10/10 11:33:28;;;;;;;6.70;2.37;;;16.90;1.00;;;;;;5097137;28;20174;-81
2022/10/10 11:36:02;;;;;;;9.63;2.67;;;17.00;1.00;;;;;;5098115;28;20170;-81
2022/10/10 11:38:39;;;;;;;5.33;2.03;;;17.00;1.00;;;;;;5096468;28;20199;-81
2022/10/10 11:41:14;;;;;;;9.37;2.57;;;17.10;1.00;;;;;;5118820;22;20240;-80
2022/10/10 11:43:49;;;;;;;5.40;2.00;;;17.00;99.90;;;;;;5078168;28;20166;-79
2022/10/10 11:46:33;;;;;;;7.43;2.33;;;17.10;99.90;;;;;;5077683;28;20619;-80
2022/10/10 11:49:10;;;;;;;8.77;2.07;;;17.10;1.00;;;;;;5077473;28;20258;-79
2022/10/10 11:51:54;;;;;;;7.30;2.40;;;17.30;1.00;;;;;;5057455;28;20174;-79
2022/10/10 11:54:35;;;;;;;13.27;2.43;;;17.30;99.90;;;;;;5075962;28;20167;-79
2022/10/10 11:57:08;;;;;;;8.20;2.00;;;17.40;1.00;;;;;;5076658;28;20498;-80
2022/10/10 11:59:51;;;;;;;5.30;2.37;;;17.40;1.00;;;;;;5058703;28;20672;-79
2022/10/10 12:02:30;;;;;;;4.80;1.97;;;17.40;12.70;;;;;;5090506;28;20159;-80
2022/10/10 12:04:56;;;;;;;7.70;2.17;;;17.40;99.90;;;;;;5084676;28;20159;-80
2022/10/10 12:07:40;;;;;;;8.13;2.10;;;17.50;1.00;;;;;;5077285;28;20186;-79
2022/10/10 12:10:21;;;;;;;8.30;2.00;;;17.50;1.00;;;;;;5057894;28;20240;-80
2022/10/10 12:12:49;;;;;;;8.70;1.70;;;17.40;1.00;;;;;;5057310;28;20194;-80
2022/10/10 12:15:31;;;;;;;8.87;1.90;;;17.50;1.00;;;;;;5075853;28;20174;-80
2022/10/10 12:17:57;;;;;;;7.20;2.13;;;17.50;1.00;;;;;;5075460;28;20195;-79
2022/10/10 12:20:25;;;;;;;5.40;1.80;;;17.60;1.00;;;;;;5075149;28;20367;-80
2022/10/10 12:23:06;;;;;;;8.17;1.90;;;17.60;1.00;;;;;;5076835;28;20167;-79
2022/10/10 12:25:41;;;;;;;8.43;2.13;;;17.70;99.90;;;;;;5061934;28;20193;-80
2022/10/10 12:28:12;;;;;;;10.23;1.80;;;17.80;1.00;;;;;;5079529;28;20166;-80
2022/10/10 12:30:53;;;;;;;4.07;1.97;;;17.80;99.90;;;;;;5061728;28;20195;-80
2022/10/10 12:33:42;;;;;;;7.87;1.60;;;17.90;99.90;;;;;;5079217;28;20514;-80
2022/10/10 12:36:19;;;;;;;6.27;1.80;;;17.90;99.90;;;;;;5062907;28;20275;-80
2022/10/10 12:39:00;;;;;;;8.00;1.90;;;18.00;1.00;;;;;;5079091;28;20194;-80
2022/10/10 12:41:41;;;;;;;6.63;2.00;;;18.10;1.00;;;;;;5061292;28;20214;-80
2022/10/10 12:44:33;;;;;;;7.03;2.00;;;18.10;99.90;;;;;;5078954;28;20173;-80
2022/10/10 12:47:13;;;;;;;10.23;2.17;;;18.10;99.90;;;;;;5079196;28;20155;-80
2022/10/10 12:49:59;;;;;;;7.30;1.60;;;18.20;99.90;;;;;;5079363;28;20186;-80
2022/10/10 12:52:56;;;;;;;8.03;1.83;;;18.20;99.90;;;;;;5061289;28;20171;-80
2022/10/10 12:55:25;;;;;;;2.97;1.40;;;18.30;99.90;;;;;;5079217;28;20151;-80
2022/10/10 12:57:59;;;;;;;11.23;2.90;;;18.40;99.90;;;;;;5078314;28;20305;-80
2022/10/10 13:00:34;;;;;;;13.40;2.10;;;18.60;1.00;;;;;;5078341;28;20236;-80
2022/10/10 13:03:03;;;;;;;5.50;1.70;;;18.70;99.90;;;;;;5078303;28;20159;-80
2022/10/10 13:05:35;;;;;;;8.73;2.67;;;18.80;99.90;;;;;;5060836;28;20544;-80
2022/10/10 13:08:04;;;;;;;8.47;2.10;;;18.90;99.90;;;;;;5060596;28;20261;-79
2022/10/10 13:10:31;;;;;;;8.53;2.00;;;18.90;99.90;;;;;;5060518;28;20234;-80
2022/10/10 13:13:16;;;;;;;7.00;2.40;;;19.00;1.00;;;;;;5078259;28;20163;-80
2022/10/10 13:15:56;;;;;;;10.23;1.90;;;18.90;32.40;;;;;;5078660;28;20155;-79